sensor_id;sensor_type;location;lat;lon;timestamp;P1;durP1;ratioP1;P2;durP2;ratioP2
56136;SDS011;42008;52.934;5.884;2024-03-23T00:52:37;46.07;;;8.20;;
56136;SDS011;42008;52.934;5.884;2024-03-23T00:55:03;49.90;;;7.63;;
56136;SDS011;42008;52.934;5.884;2024-03-23T00:57:29;37.47;;;7.00;;
56136;SDS011;42008;52.934;5.884;2024-03-23T00:59:55;33.23;;;6.67;;
56136;SDS011;42008;52.934;5.884;2024-03-23T01:02:21;30.87;;;6.43;;
56136;SDS011;42008;52.934;5.884;2024-03-23T01:04:47;46.13;;;7.90;;
56136;SDS011;42008;52.934;5.884;2024-03-23T01:07:13;41.13;;;7.10;;
56136;SDS011;42008;52.934;5.884;2024-03-23T01:09:39;44.37;;;7.33;;
56136;SDS011;42008;52.934;5.884;2024-03-23T01:12:05;38.70;;;6.83;;
56136;SDS011;42008;52.934;5.884;2024-03-23T01:14:31;38.57;;;6.60;;
56136;SDS011;42008;52.934;5.884;2024-03-23T01:16:57;43.33;;;7.40;;
56136;SDS011;42008;52.934;5.884;2024-03-23T01:19:23;41.43;;;6.97;;
56136;SDS011;42008;52.934;5.884;2024-03-23T01:21:49;34.77;;;7.60;;
56136;SDS011;42008;52.934;5.884;2024-03-23T01:24:15;38.00;;;7.23;;
56136;SDS011;42008;52.934;5.884;2024-03-23T01:26:41;35.40;;;7.77;;
56136;SDS011;42008;52.934;5.884;2024-03-23T01:29:07;28.83;;;6.27;;
56136;SDS011;42008;52.934;5.884;2024-03-23T01:31:33;34.33;;;6.33;;
56136;SDS011;42008;52.934;5.884;2024-03-23T01:33:59;25.83;;;5.53;;
56136;SDS011;42008;52.934;5.884;2024-03-23T01:36:25;36.87;;;6.37;;
56136;SDS011;42008;52.934;5.884;2024-03-23T01:38:51;36.80;;;6.17;;
56136;SDS011;42008;52.934;5.884;2024-03-23T01:41:17;32.63;;;5.70;;
56136;SDS011;42008;52.934;5.884;2024-03-23T01:43:43;27.30;;;5.53;;
56136;SDS011;42008;52.934;5.884;2024-03-23T01:46:09;38.80;;;7.00;;
56136;SDS011;42008;52.934;5.884;2024-03-23T01:48:35;35.90;;;6.70;;
56136;SDS011;42008;52.934;5.884;2024-03-23T01:51:02;34.10;;;6.30;;
56136;SDS011;42008;52.934;5.884;2024-03-23T01:53:28;29.47;;;5.70;;
56136;SDS011;42008;52.934;5.884;2024-03-23T01:55:54;36.07;;;6.27;;
56136;SDS011;42008;52.934;5.884;2024-03-23T01:58:20;37.60;;;6.20;;
56136;SDS011;42008;52.934;5.884;2024-03-23T02:00:46;31.80;;;5.47;;
56136;SDS011;42008;52.934;5.884;2024-03-23T02:03:25;39.40;;;6.33;;
56136;SDS011;42008;52.934;5.884;2024-03-23T02:05:52;31.60;;;6.07;;
56136;SDS011;42008;52.934;5.884;2024-03-23T02:08:20;27.43;;;5.87;;
56136;SDS011;42008;52.934;5.884;2024-03-23T02:10:46;31.17;;;5.40;;
56136;SDS011;42008;52.934;5.884;2024-03-23T02:13:14;36.17;;;5.17;;
56136;SDS011;42008;52.934;5.884;2024-03-23T02:15:40;30.07;;;5.87;;
56136;SDS011;42008;52.934;5.884;2024-03-23T02:18:07;26.07;;;5.03;;
56136;SDS011;42008;52.934;5.884;2024-03-23T02:20:33;30.27;;;5.43;;
56136;SDS011;42008;52.934;5.884;2024-03-23T02:22:59;26.30;;;5.27;;
56136;SDS011;42008;52.934;5.884;2024-03-23T02:25:25;24.13;;;4.90;;
56136;SDS011;42008;52.934;5.884;2024-03-23T02:27:51;28.07;;;6.17;;
56136;SDS011;42008;52.934;5.884;2024-03-23T02:30:19;29.93;;;4.87;;
56136;SDS011;42008;52.934;5.884;2024-03-23T02:32:45;30.00;;;6.07;;
56136;SDS011;42008;52.934;5.884;2024-03-23T02:35:11;24.63;;;5.17;;
56136;SDS011;42008;52.934;5.884;2024-03-23T02:37:37;28.97;;;5.50;;
56136;SDS011;42008;52.934;5.884;2024-03-23T02:40:03;39.97;;;6.03;;
56136;SDS011;42008;52.934;5.884;2024-03-23T02:42:30;27.67;;;4.70;;
56136;SDS011;42008;52.934;5.884;2024-03-23T02:44:56;30.70;;;5.30;;
56136;SDS011;42008;52.934;5.884;2024-03-23T02:47:22;23.23;;;4.87;;
56136;SDS011;42008;52.934;5.884;2024-03-23T02:49:48;27.73;;;6.13;;
56136;SDS011;42008;52.934;5.884;2024-03-23T02:52:14;34.07;;;6.10;;
56136;SDS011;42008;52.934;5.884;2024-03-23T02:54:41;26.20;;;4.63;;
56136;SDS011;42008;52.934;5.884;2024-03-23T02:57:10;26.80;;;5.03;;
56136;SDS011;42008;52.934;5.884;2024-03-23T02:59:36;31.83;;;5.50;;
56136;SDS011;42008;52.934;5.884;2024-03-23T03:02:04;29.73;;;5.30;;
56136;SDS011;42008;52.934;5.884;2024-03-23T03:04:30;33.93;;;5.53;;
56136;SDS011;42008;52.934;5.884;2024-03-23T03:06:56;30.27;;;5.33;;
56136;SDS011;42008;52.934;5.884;2024-03-23T03:09:22;33.90;;;6.77;;
56136;SDS011;42008;52.934;5.884;2024-03-23T03:11:48;25.00;;;4.60;;
56136;SDS011;42008;52.934;5.884;2024-03-23T03:14:14;25.27;;;4.80;;
56136;SDS011;42008;52.934;5.884;2024-03-23T03:16:40;23.43;;;4.70;;
56136;SDS011;42008;52.934;5.884;2024-03-23T03:19:06;27.63;;;5.53;;
56136;SDS011;42008;52.934;5.884;2024-03-23T03:21:32;29.83;;;5.97;;
56136;SDS011;42008;52.934;5.884;2024-03-23T03:23:58;21.17;;;4.20;;
56136;SDS011;42008;52.934;5.884;2024-03-23T03:26:24;29.37;;;4.23;;
56136;SDS011;42008;52.934;5.884;2024-03-23T03:28:50;31.77;;;4.93;;
56136;SDS011;42008;52.934;5.884;2024-03-23T03:31:17;21.53;;;4.03;;
56136;SDS011;42008;52.934;5.884;2024-03-23T03:33:44;31.73;;;4.87;;
56136;SDS011;42008;52.934;5.884;2024-03-23T03:36:10;28.90;;;4.60;;
56136;SDS011;42008;52.934;5.884;2024-03-23T03:38:36;27.27;;;4.03;;
56136;SDS011;42008;52.934;5.884;2024-03-23T03:41:03;28.47;;;4.50;;
56136;SDS011;42008;52.934;5.884;2024-03-23T03:43:31;26.80;;;5.60;;
56136;SDS011;42008;52.934;5.884;2024-03-23T03:45:57;21.60;;;4.57;;
56136;SDS011;42008;52.934;5.884;2024-03-23T03:48:23;24.30;;;3.63;;
56136;SDS011;42008;52.934;5.884;2024-03-23T03:50:49;25.20;;;3.93;;
56136;SDS011;42008;52.934;5.884;2024-03-23T03:53:15;25.07;;;4.67;;
56136;SDS011;42008;52.934;5.884;2024-03-23T03:55:41;28.47;;;4.67;;
56136;SDS011;42008;52.934;5.884;2024-03-23T03:58:07;34.20;;;4.30;;
56136;SDS011;42008;52.934;5.884;2024-03-23T04:00:33;31.57;;;4.40;;
56136;SDS011;42008;52.934;5.884;2024-03-23T04:03:00;26.23;;;4.90;;
56136;SDS011;42008;52.934;5.884;2024-03-23T04:05:26;25.67;;;3.43;;
56136;SDS011;42008;52.934;5.884;2024-03-23T04:07:52;26.23;;;3.87;;
56136;SDS011;42008;52.934;5.884;2024-03-23T04:10:19;35.73;;;5.97;;
56136;SDS011;42008;52.934;5.884;2024-03-23T04:12:45;27.17;;;4.40;;
56136;SDS011;42008;52.934;5.884;2024-03-23T04:15:11;31.77;;;3.93;;
56136;SDS011;42008;52.934;5.884;2024-03-23T04:17:37;26.30;;;4.47;;
56136;SDS011;42008;52.934;5.884;2024-03-23T04:20:03;24.33;;;3.80;;
56136;SDS011;42008;52.934;5.884;2024-03-23T04:22:33;24.97;;;4.93;;
56136;SDS011;42008;52.934;5.884;2024-03-23T04:25:00;25.23;;;3.70;;
56136;SDS011;42008;52.934;5.884;2024-03-23T04:27:32;25.38;;;3.90;;
56136;SDS011;42008;52.934;5.884;2024-03-23T04:29:58;28.77;;;4.63;;
56136;SDS011;42008;52.934;5.884;2024-03-23T04:32:26;30.47;;;4.53;;
56136;SDS011;42008;52.934;5.884;2024-03-23T04:34:52;31.70;;;4.73;;
56136;SDS011;42008;52.934;5.884;2024-03-23T04:37:18;21.90;;;3.93;;
56136;SDS011;42008;52.934;5.884;2024-03-23T04:39:45;26.27;;;3.93;;
56136;SDS011;42008;52.934;5.884;2024-03-23T04:42:11;20.43;;;4.10;;
56136;SDS011;42008;52.934;5.884;2024-03-23T04:44:37;21.77;;;3.90;;
56136;SDS011;42008;52.934;5.884;2024-03-23T04:47:03;27.83;;;3.60;;
56136;SDS011;42008;52.934;5.884;2024-03-23T04:49:30;19.43;;;3.53;;
56136;SDS011;42008;52.934;5.884;2024-03-23T04:51:56;20.13;;;3.57;;
56136;SDS011;42008;52.934;5.884;2024-03-23T04:54:23;29.40;;;3.57;;
56136;SDS011;42008;52.934;5.884;2024-03-23T04:56:49;22.83;;;3.10;;
56136;SDS011;42008;52.934;5.884;2024-03-23T04:59:15;23.83;;;3.60;;
56136;SDS011;42008;52.934;5.884;2024-03-23T05:01:41;21.23;;;3.73;;
56136;SDS011;42008;52.934;5.884;2024-03-23T05:04:08;23.77;;;3.53;;
56136;SDS011;42008;52.934;5.884;2024-03-23T05:06:35;28.97;;;3.70;;
56136;SDS011;42008;52.934;5.884;2024-03-23T05:09:01;23.40;;;3.97;;
56136;SDS011;42008;52.934;5.884;2024-03-23T05:11:36;24.07;;;3.57;;
56136;SDS011;42008;52.934;5.884;2024-03-23T05:14:02;25.63;;;4.27;;
56136;SDS011;42008;52.934;5.884;2024-03-23T05:16:28;24.77;;;3.80;;
56136;SDS011;42008;52.934;5.884;2024-03-23T05:18:54;36.57;;;4.00;;
56136;SDS011;42008;52.934;5.884;2024-03-23T05:21:20;20.77;;;3.63;;
56136;SDS011;42008;52.934;5.884;2024-03-23T05:23:46;28.57;;;3.73;;
56136;SDS011;42008;52.934;5.884;2024-03-23T05:26:13;25.53;;;4.87;;
56136;SDS011;42008;52.934;5.884;2024-03-23T05:28:39;26.43;;;4.20;;
56136;SDS011;42008;52.934;5.884;2024-03-23T05:31:05;21.27;;;4.10;;
56136;SDS011;42008;52.934;5.884;2024-03-23T05:33:31;18.67;;;3.33;;
56136;SDS011;42008;52.934;5.884;2024-03-23T05:35:57;19.03;;;3.60;;
56136;SDS011;42008;52.934;5.884;2024-03-23T05:38:24;21.90;;;3.27;;
56136;SDS011;42008;52.934;5.884;2024-03-23T05:40:57;12.63;;;2.80;;
56136;SDS011;42008;52.934;5.884;2024-03-23T05:43:23;12.97;;;3.30;;
56136;SDS011;42008;52.934;5.884;2024-03-23T05:45:55;13.97;;;2.40;;
56136;SDS011;42008;52.934;5.884;2024-03-23T05:48:22;9.50;;;2.17;;
56136;SDS011;42008;52.934;5.884;2024-03-23T05:50:48;12.50;;;2.30;;
56136;SDS011;42008;52.934;5.884;2024-03-23T05:53:15;14.57;;;3.20;;
56136;SDS011;42008;52.934;5.884;2024-03-23T05:55:41;16.57;;;3.13;;
56136;SDS011;42008;52.934;5.884;2024-03-23T05:58:07;18.20;;;3.03;;
56136;SDS011;42008;52.934;5.884;2024-03-23T06:00:33;15.43;;;2.93;;
56136;SDS011;42008;52.934;5.884;2024-03-23T06:02:59;17.67;;;3.37;;
56136;SDS011;42008;52.934;5.884;2024-03-23T06:05:25;16.83;;;3.33;;
56136;SDS011;42008;52.934;5.884;2024-03-23T06:07:51;15.63;;;3.37;;
56136;SDS011;42008;52.934;5.884;2024-03-23T06:10:17;12.37;;;3.07;;
56136;SDS011;42008;52.934;5.884;2024-03-23T06:12:43;20.70;;;4.47;;
56136;SDS011;42008;52.934;5.884;2024-03-23T06:15:09;17.73;;;3.30;;
56136;SDS011;42008;52.934;5.884;2024-03-23T06:17:39;19.30;;;3.50;;
56136;SDS011;42008;52.934;5.884;2024-03-23T06:20:05;15.50;;;3.00;;
56136;SDS011;42008;52.934;5.884;2024-03-23T06:22:31;25.23;;;3.40;;
56136;SDS011;42008;52.934;5.884;2024-03-23T06:24:58;20.30;;;3.33;;
56136;SDS011;42008;52.934;5.884;2024-03-23T06:27:24;19.03;;;3.50;;
56136;SDS011;42008;52.934;5.884;2024-03-23T06:29:51;24.43;;;4.50;;
56136;SDS011;42008;52.934;5.884;2024-03-23T06:32:17;17.47;;;3.60;;
56136;SDS011;42008;52.934;5.884;2024-03-23T06:34:43;20.07;;;3.40;;
56136;SDS011;42008;52.934;5.884;2024-03-23T06:37:10;19.93;;;3.80;;
56136;SDS011;42008;52.934;5.884;2024-03-23T06:39:36;23.07;;;3.67;;
56136;SDS011;42008;52.934;5.884;2024-03-23T06:42:02;24.57;;;3.43;;
56136;SDS011;42008;52.934;5.884;2024-03-23T06:44:28;10.60;;;2.43;;
56136;SDS011;42008;52.934;5.884;2024-03-23T06:46:55;11.03;;;2.47;;
56136;SDS011;42008;52.934;5.884;2024-03-23T06:49:22;10.97;;;2.80;;
56136;SDS011;42008;52.934;5.884;2024-03-23T06:51:48;17.87;;;3.33;;
56136;SDS011;42008;52.934;5.884;2024-03-23T06:54:14;14.97;;;2.60;;
56136;SDS011;42008;52.934;5.884;2024-03-23T06:56:41;7.73;;;2.40;;
56136;SDS011;42008;52.934;5.884;2024-03-23T06:59:07;12.30;;;2.53;;
56136;SDS011;42008;52.934;5.884;2024-03-23T07:01:33;9.77;;;2.00;;
56136;SDS011;42008;52.934;5.884;2024-03-23T07:04:03;13.83;;;2.53;;
56136;SDS011;42008;52.934;5.884;2024-03-23T07:06:32;13.97;;;2.20;;
56136;SDS011;42008;52.934;5.884;2024-03-23T07:08:58;10.40;;;2.27;;
56136;SDS011;42008;52.934;5.884;2024-03-23T07:11:24;13.57;;;2.67;;
56136;SDS011;42008;52.934;5.884;2024-03-23T07:13:51;13.87;;;2.97;;
56136;SDS011;42008;52.934;5.884;2024-03-23T07:16:17;18.77;;;2.90;;
56136;SDS011;42008;52.934;5.884;2024-03-23T07:18:43;14.37;;;3.37;;
56136;SDS011;42008;52.934;5.884;2024-03-23T07:21:09;14.43;;;2.80;;
56136;SDS011;42008;52.934;5.884;2024-03-23T07:23:35;17.13;;;2.90;;
56136;SDS011;42008;52.934;5.884;2024-03-23T07:26:02;18.63;;;4.20;;
56136;SDS011;42008;52.934;5.884;2024-03-23T07:28:29;20.00;;;3.57;;
56136;SDS011;42008;52.934;5.884;2024-03-23T07:33:29;20.67;;;3.73;;
56136;SDS011;42008;52.934;5.884;2024-03-23T07:35:55;23.53;;;4.10;;
56136;SDS011;42008;52.934;5.884;2024-03-23T07:38:21;23.47;;;3.77;;
56136;SDS011;42008;52.934;5.884;2024-03-23T07:40:48;21.43;;;3.90;;
56136;SDS011;42008;52.934;5.884;2024-03-23T07:43:21;22.80;;;4.10;;
56136;SDS011;42008;52.934;5.884;2024-03-23T07:45:53;23.37;;;4.63;;
56136;SDS011;42008;52.934;5.884;2024-03-23T07:48:20;26.85;;;4.07;;
56136;SDS011;42008;52.934;5.884;2024-03-23T07:50:57;29.70;;;5.27;;
56136;SDS011;42008;52.934;5.884;2024-03-23T07:53:23;21.67;;;4.10;;
56136;SDS011;42008;52.934;5.884;2024-03-23T07:55:56;28.60;;;4.10;;
56136;SDS011;42008;52.934;5.884;2024-03-23T07:58:23;24.50;;;3.67;;
56136;SDS011;42008;52.934;5.884;2024-03-23T08:00:49;28.77;;;4.30;;
56136;SDS011;42008;52.934;5.884;2024-03-23T08:03:15;21.80;;;4.17;;
56136;SDS011;42008;52.934;5.884;2024-03-23T08:05:41;28.93;;;4.03;;
56136;SDS011;42008;52.934;5.884;2024-03-23T08:08:07;28.57;;;3.63;;
56136;SDS011;42008;52.934;5.884;2024-03-23T08:10:33;24.50;;;3.80;;
56136;SDS011;42008;52.934;5.884;2024-03-23T08:12:59;22.47;;;4.03;;
56136;SDS011;42008;52.934;5.884;2024-03-23T08:15:25;21.80;;;3.97;;
56136;SDS011;42008;52.934;5.884;2024-03-23T08:17:51;18.03;;;3.40;;
56136;SDS011;42008;52.934;5.884;2024-03-23T08:20:17;13.33;;;3.10;;
56136;SDS011;42008;52.934;5.884;2024-03-23T08:22:43;11.83;;;2.90;;
56136;SDS011;42008;52.934;5.884;2024-03-23T08:25:09;15.47;;;3.53;;
56136;SDS011;42008;52.934;5.884;2024-03-23T08:27:35;21.77;;;3.80;;
56136;SDS011;42008;52.934;5.884;2024-03-23T08:30:01;14.33;;;2.70;;
56136;SDS011;42008;52.934;5.884;2024-03-23T08:32:27;18.43;;;4.00;;
56136;SDS011;42008;52.934;5.884;2024-03-23T08:34:53;19.67;;;3.20;;
56136;SDS011;42008;52.934;5.884;2024-03-23T08:37:20;18.43;;;3.27;;
56136;SDS011;42008;52.934;5.884;2024-03-23T08:39:46;16.00;;;3.47;;
56136;SDS011;42008;52.934;5.884;2024-03-23T08:42:12;18.90;;;3.13;;
56136;SDS011;42008;52.934;5.884;2024-03-23T08:44:38;14.97;;;3.57;;
56136;SDS011;42008;52.934;5.884;2024-03-23T08:47:04;18.80;;;3.20;;
56136;SDS011;42008;52.934;5.884;2024-03-23T08:49:30;15.03;;;2.87;;
56136;SDS011;42008;52.934;5.884;2024-03-23T08:51:56;19.43;;;3.57;;
56136;SDS011;42008;52.934;5.884;2024-03-23T08:54:22;16.73;;;3.30;;
56136;SDS011;42008;52.934;5.884;2024-03-23T08:56:48;17.33;;;3.27;;
56136;SDS011;42008;52.934;5.884;2024-03-23T08:59:14;14.50;;;2.67;;
56136;SDS011;42008;52.934;5.884;2024-03-23T09:01:40;19.40;;;3.10;;
56136;SDS011;42008;52.934;5.884;2024-03-23T09:04:06;20.10;;;3.87;;
56136;SDS011;42008;52.934;5.884;2024-03-23T09:06:32;21.50;;;4.30;;
56136;SDS011;42008;52.934;5.884;2024-03-23T09:08:58;20.20;;;3.80;;
56136;SDS011;42008;52.934;5.884;2024-03-23T09:11:24;24.07;;;4.73;;
56136;SDS011;42008;52.934;5.884;2024-03-23T09:13:50;18.07;;;3.57;;
56136;SDS011;42008;52.934;5.884;2024-03-23T09:16:16;19.90;;;3.40;;
56136;SDS011;42008;52.934;5.884;2024-03-23T09:18:42;21.83;;;3.53;;
56136;SDS011;42008;52.934;5.884;2024-03-23T09:21:13;16.80;;;3.53;;
56136;SDS011;42008;52.934;5.884;2024-03-23T09:23:39;21.87;;;3.57;;
56136;SDS011;42008;52.934;5.884;2024-03-23T09:26:05;23.90;;;4.10;;
56136;SDS011;42008;52.934;5.884;2024-03-23T09:28:34;15.67;;;3.00;;
56136;SDS011;42008;52.934;5.884;2024-03-23T09:31:04;18.80;;;3.50;;
56136;SDS011;42008;52.934;5.884;2024-03-23T09:33:30;14.30;;;3.30;;
56136;SDS011;42008;52.934;5.884;2024-03-23T09:35:56;12.70;;;3.00;;
56136;SDS011;42008;52.934;5.884;2024-03-23T09:38:22;17.50;;;3.30;;
56136;SDS011;42008;52.934;5.884;2024-03-23T09:40:52;10.43;;;2.10;;
56136;SDS011;42008;52.934;5.884;2024-03-23T09:43:19;11.90;;;2.03;;
56136;SDS011;42008;52.934;5.884;2024-03-23T09:45:45;16.20;;;2.60;;
56136;SDS011;42008;52.934;5.884;2024-03-23T09:48:12;14.10;;;2.47;;
56136;SDS011;42008;52.934;5.884;2024-03-23T09:50:42;18.03;;;3.10;;
56136;SDS011;42008;52.934;5.884;2024-03-23T09:53:08;15.80;;;3.40;;
56136;SDS011;42008;52.934;5.884;2024-03-23T09:55:36;14.80;;;2.67;;
56136;SDS011;42008;52.934;5.884;2024-03-23T09:58:02;21.90;;;3.50;;
56136;SDS011;42008;52.934;5.884;2024-03-23T10:00:30;16.13;;;3.37;;
56136;SDS011;42008;52.934;5.884;2024-03-23T10:02:56;25.43;;;3.57;;
56136;SDS011;42008;52.934;5.884;2024-03-23T10:05:28;17.15;;;2.70;;
56136;SDS011;42008;52.934;5.884;2024-03-23T10:07:57;15.90;;;2.93;;
56136;SDS011;42008;52.934;5.884;2024-03-23T10:10:25;17.03;;;2.70;;
56136;SDS011;42008;52.934;5.884;2024-03-23T10:12:51;11.03;;;2.87;;
56136;SDS011;42008;52.934;5.884;2024-03-23T10:15:21;10.40;;;2.03;;
56136;SDS011;42008;52.934;5.884;2024-03-23T10:17:48;9.13;;;1.70;;
56136;SDS011;42008;52.934;5.884;2024-03-23T10:20:23;10.37;;;1.93;;
56136;SDS011;42008;52.934;5.884;2024-03-23T10:22:49;6.13;;;1.77;;
56136;SDS011;42008;52.934;5.884;2024-03-23T10:25:16;8.33;;;1.40;;
56136;SDS011;42008;52.934;5.884;2024-03-23T10:27:42;7.37;;;1.70;;
56136;SDS011;42008;52.934;5.884;2024-03-23T10:30:09;6.73;;;2.07;;
56136;SDS011;42008;52.934;5.884;2024-03-23T10:32:35;10.93;;;2.20;;
56136;SDS011;42008;52.934;5.884;2024-03-23T10:35:14;11.07;;;2.30;;
56136;SDS011;42008;52.934;5.884;2024-03-23T10:37:44;14.93;;;2.33;;
56136;SDS011;42008;52.934;5.884;2024-03-23T10:40:12;11.77;;;2.33;;
56136;SDS011;42008;52.934;5.884;2024-03-23T10:42:39;9.80;;;2.10;;
56136;SDS011;42008;52.934;5.884;2024-03-23T10:45:05;6.17;;;1.50;;
56136;SDS011;42008;52.934;5.884;2024-03-23T10:47:32;9.40;;;1.70;;
56136;SDS011;42008;52.934;5.884;2024-03-23T10:49:58;6.93;;;1.90;;
56136;SDS011;42008;52.934;5.884;2024-03-23T10:52:24;7.80;;;1.40;;
56136;SDS011;42008;52.934;5.884;2024-03-23T10:54:53;9.00;;;1.73;;
56136;SDS011;42008;52.934;5.884;2024-03-23T10:57:23;12.70;;;1.90;;
56136;SDS011;42008;52.934;5.884;2024-03-23T10:59:51;15.93;;;2.33;;
56136;SDS011;42008;52.934;5.884;2024-03-23T11:02:18;13.67;;;2.57;;
56136;SDS011;42008;52.934;5.884;2024-03-23T11:04:45;11.07;;;2.70;;
56136;SDS011;42008;52.934;5.884;2024-03-23T11:09:53;16.30;;;2.60;;
56136;SDS011;42008;52.934;5.884;2024-03-23T11:14:48;16.30;;;3.40;;
56136;SDS011;42008;52.934;5.884;2024-03-23T11:17:22;5.63;;;1.53;;
56136;SDS011;42008;52.934;5.884;2024-03-23T11:25:03;2.73;;;1.03;;
56136;SDS011;42008;52.934;5.884;2024-03-23T11:27:29;4.83;;;1.10;;
56136;SDS011;42008;52.934;5.884;2024-03-23T11:30:09;6.23;;;1.50;;
56136;SDS011;42008;52.934;5.884;2024-03-23T11:32:35;6.10;;;1.70;;
56136;SDS011;42008;52.934;5.884;2024-03-23T11:35:01;12.70;;;2.50;;
56136;SDS011;42008;52.934;5.884;2024-03-23T11:37:27;15.57;;;2.90;;
56136;SDS011;42008;52.934;5.884;2024-03-23T11:39:53;10.00;;;2.17;;
56136;SDS011;42008;52.934;5.884;2024-03-23T11:42:19;7.10;;;1.97;;
56136;SDS011;42008;52.934;5.884;2024-03-23T11:44:46;14.33;;;2.20;;
56136;SDS011;42008;52.934;5.884;2024-03-23T11:47:13;14.27;;;2.50;;
56136;SDS011;42008;52.934;5.884;2024-03-23T11:49:39;19.77;;;3.20;;
56136;SDS011;42008;52.934;5.884;2024-03-23T11:52:07;14.57;;;2.97;;
56136;SDS011;42008;52.934;5.884;2024-03-23T11:54:33;15.87;;;3.33;;
56136;SDS011;42008;52.934;5.884;2024-03-23T11:57:00;18.67;;;3.50;;
56136;SDS011;42008;52.934;5.884;2024-03-23T11:59:39;15.93;;;3.30;;
56136;SDS011;42008;52.934;5.884;2024-03-23T12:04:35;22.17;;;3.30;;
56136;SDS011;42008;52.934;5.884;2024-03-23T12:07:09;18.83;;;3.90;;
56136;SDS011;42008;52.934;5.884;2024-03-23T12:09:35;29.07;;;4.30;;
56136;SDS011;42008;52.934;5.884;2024-03-23T12:14:33;20.23;;;3.88;;
56136;SDS011;42008;52.934;5.884;2024-03-23T12:17:12;16.60;;;3.23;;
56136;SDS011;42008;52.934;5.884;2024-03-23T12:19:38;21.43;;;4.37;;
56136;SDS011;42008;52.934;5.884;2024-03-23T12:22:05;16.27;;;3.27;;
56136;SDS011;42008;52.934;5.884;2024-03-23T12:24:32;20.23;;;3.70;;
56136;SDS011;42008;52.934;5.884;2024-03-23T12:27:02;19.13;;;4.43;;
56136;SDS011;42008;52.934;5.884;2024-03-23T12:29:28;17.33;;;3.07;;
56136;SDS011;42008;52.934;5.884;2024-03-23T12:31:56;22.17;;;3.87;;
56136;SDS011;42008;52.934;5.884;2024-03-23T12:34:22;16.10;;;3.57;;
56136;SDS011;42008;52.934;5.884;2024-03-23T12:36:48;17.57;;;3.53;;
56136;SDS011;42008;52.934;5.884;2024-03-23T12:39:14;16.83;;;3.67;;
56136;SDS011;42008;52.934;5.884;2024-03-23T12:41:40;16.83;;;3.70;;
56136;SDS011;42008;52.934;5.884;2024-03-23T12:44:06;20.50;;;3.60;;
56136;SDS011;42008;52.934;5.884;2024-03-23T12:46:34;17.23;;;3.53;;
56136;SDS011;42008;52.934;5.884;2024-03-23T12:49:00;16.90;;;2.97;;
56136;SDS011;42008;52.934;5.884;2024-03-23T12:51:26;13.67;;;2.70;;
56136;SDS011;42008;52.934;5.884;2024-03-23T12:53:52;16.17;;;3.50;;
56136;SDS011;42008;52.934;5.884;2024-03-23T12:56:18;18.33;;;3.50;;
56136;SDS011;42008;52.934;5.884;2024-03-23T12:58:44;16.27;;;4.00;;
56136;SDS011;42008;52.934;5.884;2024-03-23T13:01:10;11.03;;;2.77;;
56136;SDS011;42008;52.934;5.884;2024-03-23T13:03:36;17.40;;;3.63;;
56136;SDS011;42008;52.934;5.884;2024-03-23T13:06:02;20.10;;;3.50;;
56136;SDS011;42008;52.934;5.884;2024-03-23T13:08:32;16.63;;;3.60;;
56136;SDS011;42008;52.934;5.884;2024-03-23T13:10:58;19.47;;;3.97;;
56136;SDS011;42008;52.934;5.884;2024-03-23T13:13:24;18.77;;;3.50;;
56136;SDS011;42008;52.934;5.884;2024-03-23T13:15:50;16.20;;;3.07;;
56136;SDS011;42008;52.934;5.884;2024-03-23T13:18:16;20.73;;;3.87;;
56136;SDS011;42008;52.934;5.884;2024-03-23T13:20:42;17.03;;;3.40;;
56136;SDS011;42008;52.934;5.884;2024-03-23T13:23:08;18.77;;;3.20;;
56136;SDS011;42008;52.934;5.884;2024-03-23T13:25:34;14.73;;;3.00;;
56136;SDS011;42008;52.934;5.884;2024-03-23T13:28:02;19.87;;;3.57;;
56136;SDS011;42008;52.934;5.884;2024-03-23T13:30:28;15.83;;;3.17;;
56136;SDS011;42008;52.934;5.884;2024-03-23T13:32:54;17.80;;;3.30;;
56136;SDS011;42008;52.934;5.884;2024-03-23T13:35:20;17.00;;;3.93;;
56136;SDS011;42008;52.934;5.884;2024-03-23T13:37:47;19.60;;;3.33;;
56136;SDS011;42008;52.934;5.884;2024-03-23T13:40:13;17.00;;;3.77;;
56136;SDS011;42008;52.934;5.884;2024-03-23T13:42:39;14.43;;;3.43;;
56136;SDS011;42008;52.934;5.884;2024-03-23T13:45:06;17.57;;;3.10;;
56136;SDS011;42008;52.934;5.884;2024-03-23T13:47:32;15.23;;;2.93;;
56136;SDS011;42008;52.934;5.884;2024-03-23T13:49:58;16.93;;;2.93;;
56136;SDS011;42008;52.934;5.884;2024-03-23T13:52:24;17.20;;;4.27;;
56136;SDS011;42008;52.934;5.884;2024-03-23T13:54:51;13.00;;;3.17;;
56136;SDS011;42008;52.934;5.884;2024-03-23T13:57:17;12.77;;;2.90;;
56136;SDS011;42008;52.934;5.884;2024-03-23T13:59:46;18.50;;;3.10;;
56136;SDS011;42008;52.934;5.884;2024-03-23T14:02:14;12.33;;;2.60;;
56136;SDS011;42008;52.934;5.884;2024-03-23T14:04:40;13.70;;;2.90;;
56136;SDS011;42008;52.934;5.884;2024-03-23T14:07:06;14.10;;;2.50;;
56136;SDS011;42008;52.934;5.884;2024-03-23T14:09:34;8.97;;;2.20;;
56136;SDS011;42008;52.934;5.884;2024-03-23T14:12:00;14.63;;;2.87;;
56136;SDS011;42008;52.934;5.884;2024-03-23T14:14:26;19.40;;;3.80;;
56136;SDS011;42008;52.934;5.884;2024-03-23T14:16:52;13.50;;;2.30;;
56136;SDS011;42008;52.934;5.884;2024-03-23T14:19:18;15.53;;;3.03;;
56136;SDS011;42008;52.934;5.884;2024-03-23T14:21:44;15.57;;;3.77;;
56136;SDS011;42008;52.934;5.884;2024-03-23T14:24:11;17.80;;;3.40;;
56136;SDS011;42008;52.934;5.884;2024-03-23T14:26:37;17.00;;;3.50;;
56136;SDS011;42008;52.934;5.884;2024-03-23T14:29:03;14.47;;;2.93;;
56136;SDS011;42008;52.934;5.884;2024-03-23T14:31:29;14.50;;;3.50;;
56136;SDS011;42008;52.934;5.884;2024-03-23T14:33:55;15.03;;;3.67;;
56136;SDS011;42008;52.934;5.884;2024-03-23T14:36:21;17.43;;;3.13;;
56136;SDS011;42008;52.934;5.884;2024-03-23T14:38:48;11.63;;;3.00;;
56136;SDS011;42008;52.934;5.884;2024-03-23T14:41:14;11.67;;;3.10;;
56136;SDS011;42008;52.934;5.884;2024-03-23T14:43:40;14.63;;;3.33;;
56136;SDS011;42008;52.934;5.884;2024-03-23T14:46:15;15.93;;;3.17;;
56136;SDS011;42008;52.934;5.884;2024-03-23T14:48:42;12.10;;;2.50;;
56136;SDS011;42008;52.934;5.884;2024-03-23T14:51:09;15.20;;;3.13;;
56136;SDS011;42008;52.934;5.884;2024-03-23T14:53:36;11.70;;;2.20;;
56136;SDS011;42008;52.934;5.884;2024-03-23T14:56:03;11.43;;;2.13;;
56136;SDS011;42008;52.934;5.884;2024-03-23T14:58:29;10.50;;;2.23;;
56136;SDS011;42008;52.934;5.884;2024-03-23T15:01:02;10.80;;;2.03;;
56136;SDS011;42008;52.934;5.884;2024-03-23T15:03:28;6.03;;;1.40;;
56136;SDS011;42008;52.934;5.884;2024-03-23T15:05:55;6.73;;;1.40;;
56136;SDS011;42008;52.934;5.884;2024-03-23T15:08:21;9.87;;;1.97;;
56136;SDS011;42008;52.934;5.884;2024-03-23T15:10:47;7.73;;;1.90;;
56136;SDS011;42008;52.934;5.884;2024-03-23T15:13:13;10.00;;;2.30;;
56136;SDS011;42008;52.934;5.884;2024-03-23T15:15:43;13.77;;;2.60;;
56136;SDS011;42008;52.934;5.884;2024-03-23T15:18:13;11.60;;;2.67;;
56136;SDS011;42008;52.934;5.884;2024-03-23T15:20:57;19.43;;;3.27;;
56136;SDS011;42008;52.934;5.884;2024-03-23T15:23:23;14.30;;;3.43;;
56136;SDS011;42008;52.934;5.884;2024-03-23T15:25:56;13.90;;;2.50;;
56136;SDS011;42008;52.934;5.884;2024-03-23T15:28:22;13.07;;;2.53;;
56136;SDS011;42008;52.934;5.884;2024-03-23T15:30:49;13.23;;;2.40;;
56136;SDS011;42008;52.934;5.884;2024-03-23T15:33:15;11.53;;;2.40;;
56136;SDS011;42008;52.934;5.884;2024-03-23T15:35:41;10.70;;;2.10;;
56136;SDS011;42008;52.934;5.884;2024-03-23T15:38:07;13.60;;;2.40;;
56136;SDS011;42008;52.934;5.884;2024-03-23T15:40:34;9.63;;;2.17;;
56136;SDS011;42008;52.934;5.884;2024-03-23T15:43:00;11.30;;;2.30;;